CheckWX is a tool to help pilots better visualize weather data.  It is not intended as a substitute for an official pre-flight weather briefing.

05:14:16 UTC

KEGI METAR
Duke Field Airport
Crestview, Florida, USA
Current

33 mins ago

KEGI 240441Z AUTO 18011KT 3SM BR OVC003 21/21 A3002 RMK AO2 SLP166 $
Observed
Feb-24 @ 04:41 UTC
Wind
  • 180° at 11 KTS
Visibility
3 SM
Flight Rules
LIFR
Conditions
Mist
Cloud Levels
  • Overcast at 300' AGL
Temperature
21°C / 70°F
Dewpoint
21°C / 70°F
Humidity
100%
Altimeter
30.02" Hg
Pressure
1016.6 hPa
Previous

1 hour ago

KEGI 240356Z AUTO 19009KT 2 3/4SM BR OVC003 21/21 A3003 RMK AO2 SLP169 T02140214 $
Observed
Feb-24 @ 03:56 UTC
Wind
  • 190° at 9 KTS
Visibility
2 3/4 SM
Flight Rules
LIFR
Conditions
Mist
Cloud Levels
  • Overcast at 300' AGL
Temperature
21°C / 70°F
Dewpoint
21°C / 70°F
Humidity
100%
Altimeter
30.03" Hg
Pressure
1016.9 hPa
Previous

2 hours ago

KEGI 240256Z AUTO 18008KT 1 1/4SM BR OVC001 21/21 A3003 RMK AO2 SLP169 T02100210 52010 $
Observed
Feb-24 @ 02:56 UTC
Wind
  • 180° at 8 KTS
Visibility
1 1/4 SM
Flight Rules
LIFR
Conditions
Mist
Cloud Levels
  • Overcast at 100' AGL
Temperature
21°C / 70°F
Dewpoint
21°C / 70°F
Humidity
100%
Altimeter
30.03" Hg
Pressure
1016.9 hPa